sensor_id;sensor_type;location;lat;lon;timestamp;pressure;altitude;pressure_sealevel;temperature;humidity
59873;BME280;50750;51.636;4.948;2024-02-28T00:00:31;102186.48;;;11.76;63.19
59873;BME280;50750;51.636;4.948;2024-02-28T00:03:18;102177.17;;;11.76;63.20
59873;BME280;50750;51.636;4.948;2024-02-28T00:05:46;102178.41;;;11.75;63.29
59873;BME280;50750;51.636;4.948;2024-02-28T00:08:13;102178.26;;;11.75;63.27
59873;BME280;50750;51.636;4.948;2024-02-28T00:10:41;102182.83;;;11.74;63.38
59873;BME280;50750;51.636;4.948;2024-02-28T00:13:09;102180.36;;;11.74;63.33
59873;BME280;50750;51.636;4.948;2024-02-28T00:15:37;102183.70;;;11.75;63.40
59873;BME280;50750;51.636;4.948;2024-02-28T00:18:06;102181.41;;;11.74;63.25
59873;BME280;50750;51.636;4.948;2024-02-28T00:20:34;102176.67;;;11.75;63.27
59873;BME280;50750;51.636;4.948;2024-02-28T00:23:01;102179.30;;;11.75;63.39
59873;BME280;50750;51.636;4.948;2024-02-28T00:25:29;102178.77;;;11.75;63.40
59873;BME280;50750;51.636;4.948;2024-02-28T00:27:57;102171.04;;;11.76;63.21
59873;BME280;50750;51.636;4.948;2024-02-28T00:30:25;102172.10;;;11.75;63.22
59873;BME280;50750;51.636;4.948;2024-02-28T00:32:52;102170.86;;;11.76;63.31
59873;BME280;50750;51.636;4.948;2024-02-28T00:35:20;102171.41;;;11.74;63.27
59873;BME280;50750;51.636;4.948;2024-02-28T00:37:48;102177.20;;;11.75;63.16
59873;BME280;50750;51.636;4.948;2024-02-28T00:40:16;102181.95;;;11.74;63.27
59873;BME280;50750;51.636;4.948;2024-02-28T00:42:43;102184.41;;;11.74;63.37
59873;BME280;50750;51.636;4.948;2024-02-28T00:45:13;102182.11;;;11.73;63.21
59873;BME280;50750;51.636;4.948;2024-02-28T00:47:41;102179.15;;;11.72;63.28
59873;BME280;50750;51.636;4.948;2024-02-28T00:50:10;102175.81;;;11.72;63.27
59873;BME280;50750;51.636;4.948;2024-02-28T00:52:38;102173.73;;;11.71;63.47
59873;BME280;50750;51.636;4.948;2024-02-28T00:55:07;102167.25;;;11.70;63.47
59873;BME280;50750;51.636;4.948;2024-02-28T00:57:35;102164.09;;;11.70;63.19
59873;BME280;50750;51.636;4.948;2024-02-28T01:00:04;102164.45;;;11.69;63.36
59873;BME280;50750;51.636;4.948;2024-02-28T01:02:33;102158.14;;;11.69;63.44
59873;BME280;50750;51.636;4.948;2024-02-28T01:05:00;102156.03;;;11.68;63.37
59873;BME280;50750;51.636;4.948;2024-02-28T01:07:28;102152.71;;;11.68;63.18
59873;BME280;50750;51.636;4.948;2024-02-28T01:09:55;102157.80;;;11.69;63.29
59873;BME280;50750;51.636;4.948;2024-02-28T01:12:23;102160.78;;;11.69;63.25
59873;BME280;50750;51.636;4.948;2024-02-28T01:14:51;102162.18;;;11.69;63.46
59873;BME280;50750;51.636;4.948;2024-02-28T01:17:19;102168.49;;;11.69;63.39
59873;BME280;50750;51.636;4.948;2024-02-28T01:19:46;102164.99;;;11.69;63.34
59873;BME280;50750;51.636;4.948;2024-02-28T01:22:14;102164.83;;;11.69;63.38
59873;BME280;50750;51.636;4.948;2024-02-28T01:24:42;102163.41;;;11.69;63.30
59873;BME280;50750;51.636;4.948;2024-02-28T01:27:09;102166.75;;;11.68;63.33
59873;BME280;50750;51.636;4.948;2024-02-28T01:29:37;102170.25;;;11.69;63.16
59873;BME280;50750;51.636;4.948;2024-02-28T01:32:05;102166.75;;;11.68;63.34
59873;BME280;50750;51.636;4.948;2024-02-28T01:34:34;102162.75;;;11.66;63.31
59873;BME280;50750;51.636;4.948;2024-02-28T01:37:02;102166.60;;;11.66;63.39
59873;BME280;50750;51.636;4.948;2024-02-28T01:39:29;102171.36;;;11.65;63.43
59873;BME280;50750;51.636;4.948;2024-02-28T01:41:57;102169.96;;;11.65;63.31
59873;BME280;50750;51.636;4.948;2024-02-28T01:44:25;102173.83;;;11.64;63.37
59873;BME280;50750;51.636;4.948;2024-02-28T01:46:52;102171.56;;;11.63;63.44
59873;BME280;50750;51.636;4.948;2024-02-28T01:49:21;102172.09;;;11.63;63.21
59873;BME280;50750;51.636;4.948;2024-02-28T01:51:50;102170.33;;;11.63;63.24
59873;BME280;50750;51.636;4.948;2024-02-28T01:54:18;102171.75;;;11.63;63.26
59873;BME280;50750;51.636;4.948;2024-02-28T01:56:47;102168.59;;;11.63;63.31
59873;BME280;50750;51.636;4.948;2024-02-28T01:59:16;102170.69;;;11.63;63.27
59873;BME280;50750;51.636;4.948;2024-02-28T02:01:45;102168.23;;;11.63;63.37
59873;BME280;50750;51.636;4.948;2024-02-28T02:04:13;102165.60;;;11.63;63.23
59873;BME280;50750;51.636;4.948;2024-02-28T02:06:43;102161.58;;;11.63;63.32
59873;BME280;50750;51.636;4.948;2024-02-28T02:09:12;102162.61;;;11.63;63.28
59873;BME280;50750;51.636;4.948;2024-02-28T02:11:40;102163.85;;;11.63;63.20
59873;BME280;50750;51.636;4.948;2024-02-28T02:14:08;102161.40;;;11.62;63.30
59873;BME280;50750;51.636;4.948;2024-02-28T02:16:35;102159.48;;;11.62;63.17
59873;BME280;50750;51.636;4.948;2024-02-28T02:19:04;102157.38;;;11.61;63.35
59873;BME280;50750;51.636;4.948;2024-02-28T02:21:36;102156.16;;;11.60;63.20
59873;BME280;50750;51.636;4.948;2024-02-28T02:24:06;102153.19;;;11.60;63.20
59873;BME280;50750;51.636;4.948;2024-02-28T02:26:34;102152.50;;;11.58;63.23
59873;BME280;50750;51.636;4.948;2024-02-28T02:29:01;102152.16;;;11.58;63.26
59873;BME280;50750;51.636;4.948;2024-02-28T02:31:29;102156.38;;;11.57;63.17
59873;BME280;50750;51.636;4.948;2024-02-28T02:33:57;102161.84;;;11.56;63.34
59873;BME280;50750;51.636;4.948;2024-02-28T02:36:25;102166.05;;;11.56;63.22
59873;BME280;50750;51.636;4.948;2024-02-28T02:38:52;102169.73;;;11.56;63.24
59873;BME280;50750;51.636;4.948;2024-02-28T02:41:20;102169.03;;;11.56;63.40
59873;BME280;50750;51.636;4.948;2024-02-28T02:43:48;102167.98;;;11.56;63.45
59873;BME280;50750;51.636;4.948;2024-02-28T02:46:15;102167.63;;;11.56;63.36
59873;BME280;50750;51.636;4.948;2024-02-28T02:48:43;102167.09;;;11.56;63.38
59873;BME280;50750;51.636;4.948;2024-02-28T02:51:11;102171.13;;;11.56;63.33
59873;BME280;50750;51.636;4.948;2024-02-28T02:53:38;102167.79;;;11.57;63.16
59873;BME280;50750;51.636;4.948;2024-02-28T02:56:07;102166.91;;;11.56;63.26
59873;BME280;50750;51.636;4.948;2024-02-28T02:58:35;102161.84;;;11.56;63.42
59873;BME280;50750;51.636;4.948;2024-02-28T03:01:03;102159.21;;;11.56;63.31
59873;BME280;50750;51.636;4.948;2024-02-28T03:03:31;102162.36;;;11.55;63.18
59873;BME280;50750;51.636;4.948;2024-02-28T03:05:59;102161.66;;;11.55;63.32
59873;BME280;50750;51.636;4.948;2024-02-28T03:08:26;102163.95;;;11.55;63.31
59873;BME280;50750;51.636;4.948;2024-02-28T03:10:54;102170.64;;;11.54;63.46
59873;BME280;50750;51.636;4.948;2024-02-28T03:13:21;102163.46;;;11.53;63.37
59873;BME280;50750;51.636;4.948;2024-02-28T03:15:49;102162.94;;;11.52;63.30
59873;BME280;50750;51.636;4.948;2024-02-28T03:18:17;102159.08;;;11.51;63.36
59873;BME280;50750;51.636;4.948;2024-02-28T03:20:46;102152.79;;;11.51;63.37
59873;BME280;50750;51.636;4.948;2024-02-28T03:23:13;102147.89;;;11.50;63.29
59873;BME280;50750;51.636;4.948;2024-02-28T03:25:41;102144.73;;;11.50;63.43
59873;BME280;50750;51.636;4.948;2024-02-28T03:28:09;102142.45;;;11.50;63.42
59873;BME280;50750;51.636;4.948;2024-02-28T03:30:37;102144.71;;;11.50;63.16
59873;BME280;50750;51.636;4.948;2024-02-28T03:33:05;102146.65;;;11.50;63.42
59873;BME280;50750;51.636;4.948;2024-02-28T03:35:32;102144.71;;;11.51;63.20
59873;BME280;50750;51.636;4.948;2024-02-28T03:38:00;102140.86;;;11.51;63.13
59873;BME280;50750;51.636;4.948;2024-02-28T03:40:27;102140.67;;;11.51;63.38
59873;BME280;50750;51.636;4.948;2024-02-28T03:42:55;102140.48;;;11.52;63.30
59873;BME280;50750;51.636;4.948;2024-02-28T03:45:23;102141.73;;;11.51;63.19
59873;BME280;50750;51.636;4.948;2024-02-28T03:47:51;102141.22;;;11.50;63.31
59873;BME280;50750;51.636;4.948;2024-02-28T03:50:18;102148.59;;;11.50;63.30
59873;BME280;50750;51.636;4.948;2024-02-28T03:52:46;102150.16;;;11.50;63.42
59873;BME280;50750;51.636;4.948;2024-02-28T03:55:14;102150.35;;;11.49;63.32
59873;BME280;50750;51.636;4.948;2024-02-28T03:57:42;102150.88;;;11.48;63.24
59873;BME280;50750;51.636;4.948;2024-02-28T04:00:16;102152.66;;;11.48;63.41
59873;BME280;50750;51.636;4.948;2024-02-28T04:02:44;102153.01;;;11.47;63.31
59873;BME280;50750;51.636;4.948;2024-02-28T04:05:11;102153.55;;;11.46;63.47
59873;BME280;50750;51.636;4.948;2024-02-28T04:07:39;102157.77;;;11.45;63.41
59873;BME280;50750;51.636;4.948;2024-02-28T04:10:09;102160.23;;;11.45;63.26
59873;BME280;50750;51.636;4.948;2024-02-28T04:12:38;102158.82;;;11.45;63.41
59873;BME280;50750;51.636;4.948;2024-02-28T04:15:07;102156.54;;;11.45;63.38
59873;BME280;50750;51.636;4.948;2024-02-28T04:17:35;102155.48;;;11.45;63.26
59873;BME280;50750;51.636;4.948;2024-02-28T04:20:03;102149.52;;;11.45;63.45
59873;BME280;50750;51.636;4.948;2024-02-28T04:22:31;102147.58;;;11.45;63.31
59873;BME280;50750;51.636;4.948;2024-02-28T04:24:59;102144.08;;;11.45;63.31
59873;BME280;50750;51.636;4.948;2024-02-28T04:27:27;102142.15;;;11.46;63.28
59873;BME280;50750;51.636;4.948;2024-02-28T04:29:54;102140.92;;;11.45;63.41
59873;BME280;50750;51.636;4.948;2024-02-28T04:32:22;102151.09;;;11.45;63.24
59873;BME280;50750;51.636;4.948;2024-02-28T04:34:49;102151.11;;;11.45;63.45
59873;BME280;50750;51.636;4.948;2024-02-28T04:37:17;102157.24;;;11.45;63.21
59873;BME280;50750;51.636;4.948;2024-02-28T04:39:45;102166.89;;;11.45;63.28
59873;BME280;50750;51.636;4.948;2024-02-28T04:42:13;102167.59;;;11.44;63.37
59873;BME280;50750;51.636;4.948;2024-02-28T04:44:40;102169.89;;;11.43;63.52
59873;BME280;50750;51.636;4.948;2024-02-28T04:47:08;102174.27;;;11.43;63.20
59873;BME280;50750;51.636;4.948;2024-02-28T04:49:37;102177.80;;;11.42;63.43
59873;BME280;50750;51.636;4.948;2024-02-28T04:52:06;102181.14;;;11.41;63.35
59873;BME280;50750;51.636;4.948;2024-02-28T04:54:34;102183.77;;;11.41;63.39
59873;BME280;50750;51.636;4.948;2024-02-28T04:57:01;102189.94;;;11.40;63.35
59873;BME280;50750;51.636;4.948;2024-02-28T04:59:30;102194.33;;;11.40;63.41
59873;BME280;50750;51.636;4.948;2024-02-28T05:01:58;102197.28;;;11.41;63.30
59873;BME280;50750;51.636;4.948;2024-02-28T05:04:27;102200.09;;;11.40;63.43
59873;BME280;50750;51.636;4.948;2024-02-28T05:06:54;102200.08;;;11.41;63.60
59873;BME280;50750;51.636;4.948;2024-02-28T05:09:22;102200.77;;;11.42;63.42
59873;BME280;50750;51.636;4.948;2024-02-28T05:11:49;102201.14;;;11.42;63.42
59873;BME280;50750;51.636;4.948;2024-02-28T05:14:17;102202.19;;;11.41;63.22
59873;BME280;50750;51.636;4.948;2024-02-28T05:16:46;102201.84;;;11.41;63.36
59873;BME280;50750;51.636;4.948;2024-02-28T05:19:14;102199.55;;;11.41;63.41
59873;BME280;50750;51.636;4.948;2024-02-28T05:21:45;102200.27;;;11.40;63.22
59873;BME280;50750;51.636;4.948;2024-02-28T05:24:13;102203.60;;;11.40;63.33
59873;BME280;50750;51.636;4.948;2024-02-28T05:26:40;102206.41;;;11.40;63.20
59873;BME280;50750;51.636;4.948;2024-02-28T05:29:09;102200.63;;;11.39;63.23
59873;BME280;50750;51.636;4.948;2024-02-28T05:31:36;102199.23;;;11.39;63.33
59873;BME280;50750;51.636;4.948;2024-02-28T05:34:05;102201.70;;;11.38;63.17
59873;BME280;50750;51.636;4.948;2024-02-28T05:36:33;102206.09;;;11.38;63.15
59873;BME280;50750;51.636;4.948;2024-02-28T05:39:01;102204.17;;;11.37;63.10
59873;BME280;50750;51.636;4.948;2024-02-28T05:41:29;102203.65;;;11.37;63.18
59873;BME280;50750;51.636;4.948;2024-02-28T05:43:56;102203.29;;;11.36;63.36
59873;BME280;50750;51.636;4.948;2024-02-28T05:46:24;102199.28;;;11.35;63.36
59873;BME280;50750;51.636;4.948;2024-02-28T05:48:51;102196.66;;;11.35;63.17
59873;BME280;50750;51.636;4.948;2024-02-28T05:51:20;102195.27;;;11.34;63.18
59873;BME280;50750;51.636;4.948;2024-02-28T05:53:47;102195.42;;;11.35;63.08
59873;BME280;50750;51.636;4.948;2024-02-28T05:56:15;102195.77;;;11.35;63.26
59873;BME280;50750;51.636;4.948;2024-02-28T05:58:44;102197.17;;;11.35;63.20
59873;BME280;50750;51.636;4.948;2024-02-28T06:01:14;102198.04;;;11.36;63.19
59873;BME280;50750;51.636;4.948;2024-02-28T06:03:42;102196.46;;;11.36;63.27
59873;BME280;50750;51.636;4.948;2024-02-28T06:06:10;102203.83;;;11.36;63.28
59873;BME280;50750;51.636;4.948;2024-02-28T06:08:39;102202.41;;;11.36;63.16
59873;BME280;50750;51.636;4.948;2024-02-28T06:11:07;102199.25;;;11.36;63.08
59873;BME280;50750;51.636;4.948;2024-02-28T06:13:35;102204.53;;;11.36;63.09
59873;BME280;50750;51.636;4.948;2024-02-28T06:16:04;102208.23;;;11.35;63.28
59873;BME280;50750;51.636;4.948;2024-02-28T06:18:31;102210.16;;;11.35;63.26
59873;BME280;50750;51.636;4.948;2024-02-28T06:21:00;102212.45;;;11.34;63.19
59873;BME280;50750;51.636;4.948;2024-02-28T06:23:28;102208.77;;;11.33;63.13
59873;BME280;50750;51.636;4.948;2024-02-28T06:25:57;102201.94;;;11.33;63.31
59873;BME280;50750;51.636;4.948;2024-02-28T06:28:25;102202.13;;;11.32;63.29
59873;BME280;50750;51.636;4.948;2024-02-28T06:30:52;102204.24;;;11.32;63.23
59873;BME280;50750;51.636;4.948;2024-02-28T06:33:20;102209.52;;;11.31;63.23
59873;BME280;50750;51.636;4.948;2024-02-28T06:35:48;102213.91;;;11.30;63.21
59873;BME280;50750;51.636;4.948;2024-02-28T06:38:15;102215.85;;;11.27;62.61
59873;BME280;50750;51.636;4.948;2024-02-28T06:40:43;102211.68;;;11.25;61.96
59873;BME280;50750;51.636;4.948;2024-02-28T06:43:11;102207.63;;;11.25;62.01
59873;BME280;50750;51.636;4.948;2024-02-28T06:45:39;102212.38;;;11.25;62.23
59873;BME280;50750;51.636;4.948;2024-02-28T06:48:07;102219.38;;;11.25;62.15
59873;BME280;50750;51.636;4.948;2024-02-28T06:50:35;102225.52;;;11.25;62.28
59873;BME280;50750;51.636;4.948;2024-02-28T06:53:03;102236.74;;;11.25;62.27
59873;BME280;50750;51.636;4.948;2024-02-28T06:55:31;102246.91;;;11.25;62.61
59873;BME280;50750;51.636;4.948;2024-02-28T06:57:59;102250.77;;;11.25;62.37
59873;BME280;50750;51.636;4.948;2024-02-28T07:00:27;102259.18;;;11.26;62.61
59873;BME280;50750;51.636;4.948;2024-02-28T07:02:54;102262.69;;;11.26;62.60
59873;BME280;50750;51.636;4.948;2024-02-28T07:05:22;102268.46;;;11.25;62.65
59873;BME280;50750;51.636;4.948;2024-02-28T07:07:51;102269.36;;;11.25;62.60
59873;BME280;50750;51.636;4.948;2024-02-28T07:10:19;102267.79;;;11.24;62.65
59873;BME280;50750;51.636;4.948;2024-02-28T07:12:47;102267.27;;;11.24;62.66
59873;BME280;50750;51.636;4.948;2024-02-28T07:15:14;102272.54;;;11.24;62.84
59873;BME280;50750;51.636;4.948;2024-02-28T07:17:46;102276.92;;;11.23;62.80
59873;BME280;50750;51.636;4.948;2024-02-28T07:20:14;102274.48;;;11.22;62.80
59873;BME280;50750;51.636;4.948;2024-02-28T07:22:42;102274.48;;;11.21;62.75
59873;BME280;50750;51.636;4.948;2024-02-28T07:25:10;102273.44;;;11.21;62.76
59873;BME280;50750;51.636;4.948;2024-02-28T07:27:38;102276.26;;;11.20;63.04
59873;BME280;50750;51.636;4.948;2024-02-28T07:30:08;102271.88;;;11.20;62.98
59873;BME280;50750;51.636;4.948;2024-02-28T07:32:35;102273.10;;;11.20;62.92
59873;BME280;50750;51.636;4.948;2024-02-28T07:35:05;102277.13;;;11.20;63.04
59873;BME280;50750;51.636;4.948;2024-02-28T07:37:33;102278.02;;;11.20;63.10
59873;BME280;50750;51.636;4.948;2024-02-28T07:40:00;102282.39;;;11.21;63.20
59873;BME280;50750;51.636;4.948;2024-02-28T07:42:28;102286.06;;;11.21;63.16
59873;BME280;50750;51.636;4.948;2024-02-28T07:44:56;102292.36;;;11.22;62.97
59873;BME280;50750;51.636;4.948;2024-02-28T07:47:24;102291.48;;;11.22;63.24
59873;BME280;50750;51.636;4.948;2024-02-28T07:49:51;102295.16;;;11.23;63.06
59873;BME280;50750;51.636;4.948;2024-02-28T07:52:20;102292.89;;;11.23;63.14
59873;BME280;50750;51.636;4.948;2024-02-28T07:54:48;102301.28;;;11.24;63.13
59873;BME280;50750;51.636;4.948;2024-02-28T07:57:16;102302.17;;;11.24;63.12
59873;BME280;50750;51.636;4.948;2024-02-28T07:59:43;102304.63;;;11.23;63.02
59873;BME280;50750;51.636;4.948;2024-02-28T08:02:11;102304.80;;;11.23;63.20
59873;BME280;50750;51.636;4.948;2024-02-28T08:04:40;102304.80;;;11.23;63.21
59873;BME280;50750;51.636;4.948;2024-02-28T08:07:07;102303.75;;;11.23;63.21
59873;BME280;50750;51.636;4.948;2024-02-28T08:09:35;102304.27;;;11.22;63.17
59873;BME280;50750;51.636;4.948;2024-02-28T08:12:03;102307.27;;;11.22;63.12
59873;BME280;50750;51.636;4.948;2024-02-28T08:14:31;102313.42;;;11.21;63.15
59873;BME280;50750;51.636;4.948;2024-02-28T08:16:59;102320.09;;;11.20;63.37
59873;BME280;50750;51.636;4.948;2024-02-28T08:19:26;102328.68;;;11.20;63.31
59873;BME280;50750;51.636;4.948;2024-02-28T08:21:54;102330.96;;;11.20;63.13
59873;BME280;50750;51.636;4.948;2024-02-28T08:24:22;102328.33;;;11.19;63.35
59873;BME280;50750;51.636;4.948;2024-02-28T08:26:49;102328.49;;;11.20;63.38
59873;BME280;50750;51.636;4.948;2024-02-28T08:29:17;102327.09;;;11.19;63.33
59873;BME280;50750;51.636;4.948;2024-02-28T08:31:44;102326.93;;;11.20;63.23
59873;BME280;50750;51.636;4.948;2024-02-28T08:34:12;102328.33;;;11.20;63.35
59873;BME280;50750;51.636;4.948;2024-02-28T08:36:40;102334.29;;;11.21;63.22
59873;BME280;50750;51.636;4.948;2024-02-28T08:39:07;102332.01;;;11.21;63.31
59873;BME280;50750;51.636;4.948;2024-02-28T08:41:36;102332.00;;;11.21;63.30
59873;BME280;50750;51.636;4.948;2024-02-28T08:44:04;102334.11;;;11.21;63.23
59873;BME280;50750;51.636;4.948;2024-02-28T08:46:32;102336.21;;;11.21;63.32
59873;BME280;50750;51.636;4.948;2024-02-28T08:48:59;102335.52;;;11.21;63.27
59873;BME280;50750;51.636;4.948;2024-02-28T08:51:27;102343.23;;;11.21;63.08
59873;BME280;50750;51.636;4.948;2024-02-28T08:53:54;102345.16;;;11.20;63.13
59873;BME280;50750;51.636;4.948;2024-02-28T08:56:23;102351.48;;;11.20;63.15
59873;BME280;50750;51.636;4.948;2024-02-28T08:58:50;102349.55;;;11.20;63.19
59873;BME280;50750;51.636;4.948;2024-02-28T09:01:18;102346.20;;;11.20;63.15
59873;BME280;50750;51.636;4.948;2024-02-28T09:03:45;102347.27;;;11.19;63.23
59873;BME280;50750;51.636;4.948;2024-02-28T09:06:14;102343.95;;;11.18;63.27
59873;BME280;50750;51.636;4.948;2024-02-28T09:08:42;102336.58;;;11.17;63.40
59873;BME280;50750;51.636;4.948;2024-02-28T09:11:10;102329.92;;;11.18;63.15
59873;BME280;50750;51.636;4.948;2024-02-28T09:13:38;102321.51;;;11.17;63.18
59873;BME280;50750;51.636;4.948;2024-02-28T09:16:06;102318.70;;;11.18;63.40
59873;BME280;50750;51.636;4.948;2024-02-28T09:18:33;102316.08;;;11.18;63.22
59873;BME280;50750;51.636;4.948;2024-02-28T09:21:01;102321.66;;;11.19;63.36
59873;BME280;50750;51.636;4.948;2024-02-28T09:23:29;102323.06;;;11.20;63.26
59873;BME280;50750;51.636;4.948;2024-02-28T09:25:57;102318.86;;;11.19;63.38
59873;BME280;50750;51.636;4.948;2024-02-28T09:28:25;102318.16;;;11.20;63.36
59873;BME280;50750;51.636;4.948;2024-02-28T09:30:53;102316.05;;;11.20;63.36
59873;BME280;50750;51.636;4.948;2024-02-28T09:33:20;102323.25;;;11.21;63.25
59873;BME280;50750;51.636;4.948;2024-02-28T09:35:48;102325.17;;;11.20;63.38
59873;BME280;50750;51.636;4.948;2024-02-28T09:38:16;102328.50;;;11.20;63.53
59873;BME280;50750;51.636;4.948;2024-02-28T09:40:47;102329.21;;;11.20;63.56
59873;BME280;50750;51.636;4.948;2024-02-28T09:43:22;102328.31;;;11.20;63.40
59873;BME280;50750;51.636;4.948;2024-02-28T09:45:54;102330.78;;;11.19;63.43
59873;BME280;50750;51.636;4.948;2024-02-28T09:48:25;102331.83;;;11.19;63.51
59873;BME280;50750;51.636;4.948;2024-02-28T09:50:55;102329.39;;;11.18;63.44
59873;BME280;50750;51.636;4.948;2024-02-28T09:53:23;102330.09;;;11.19;63.41
59873;BME280;50750;51.636;4.948;2024-02-28T09:55:51;102329.58;;;11.18;63.66
59873;BME280;50750;51.636;4.948;2024-02-28T09:58:20;102325.89;;;11.18;63.63
59873;BME280;50750;51.636;4.948;2024-02-28T10:00:49;102323.62;;;11.18;63.68
59873;BME280;50750;51.636;4.948;2024-02-28T10:03:18;102324.48;;;11.19;63.58
59873;BME280;50750;51.636;4.948;2024-02-28T10:05:46;102323.77;;;11.20;63.70
59873;BME280;50750;51.636;4.948;2024-02-28T10:08:14;102323.95;;;11.20;63.54
59873;BME280;50750;51.636;4.948;2024-02-28T10:10:46;102325.70;;;11.20;63.68
59873;BME280;50750;51.636;4.948;2024-02-28T10:13:16;102331.11;;;11.21;63.61
59873;BME280;50750;51.636;4.948;2024-02-28T10:15:43;102328.14;;;11.21;63.63
59873;BME280;50750;51.636;4.948;2024-02-28T10:18:11;102325.86;;;11.21;63.64
59873;BME280;50750;51.636;4.948;2024-02-28T10:20:39;102324.64;;;11.21;63.72
59873;BME280;50750;51.636;4.948;2024-02-28T10:23:07;102322.36;;;11.21;63.68
59873;BME280;50750;51.636;4.948;2024-02-28T10:25:43;102325.17;;;11.20;63.68
59873;BME280;50750;51.636;4.948;2024-02-28T10:28:11;102325.52;;;11.20;63.88
59873;BME280;50750;51.636;4.948;2024-02-28T10:30:41;102324.64;;;11.20;63.89
59873;BME280;50750;51.636;4.948;2024-02-28T10:33:12;102319.04;;;11.19;64.03
59873;BME280;50750;51.636;4.948;2024-02-28T10:35:41;102313.79;;;11.19;63.82
59873;BME280;50750;51.636;4.948;2024-02-28T10:38:11;102313.80;;;11.18;64.05
59873;BME280;50750;51.636;4.948;2024-02-28T10:40:38;102313.62;;;11.18;63.86
59873;BME280;50750;51.636;4.948;2024-02-28T10:43:08;102312.58;;;11.17;64.14
59873;BME280;50750;51.636;4.948;2024-02-28T10:45:36;102312.39;;;11.17;63.98
59873;BME280;50750;51.636;4.948;2024-02-28T10:48:05;102313.63;;;11.17;64.22
59873;BME280;50750;51.636;4.948;2024-02-28T10:50:33;102315.03;;;11.17;64.03
59873;BME280;50750;51.636;4.948;2024-02-28T10:53:03;102315.38;;;11.17;64.05
59873;BME280;50750;51.636;4.948;2024-02-28T10:55:33;102318.00;;;11.17;64.06
59873;BME280;50750;51.636;4.948;2024-02-28T10:58:06;102316.26;;;11.18;64.22
59873;BME280;50750;51.636;4.948;2024-02-28T11:00:35;102315.02;;;11.18;64.02
59873;BME280;50750;51.636;4.948;2024-02-28T11:03:04;102311.33;;;11.19;64.29
59873;BME280;50750;51.636;4.948;2024-02-28T11:05:38;102309.58;;;11.19;64.34
59873;BME280;50750;51.636;4.948;2024-02-28T11:08:09;102309.40;;;11.20;64.23
59873;BME280;50750;51.636;4.948;2024-02-28T11:10:41;102305.88;;;11.21;64.21
59873;BME280;50750;51.636;4.948;2024-02-28T11:13:21;102304.82;;;11.21;64.19
59873;BME280;50750;51.636;4.948;2024-02-28T11:15:49;102303.24;;;11.21;64.39
59873;BME280;50750;51.636;4.948;2024-02-28T11:18:16;102300.95;;;11.22;64.29
59873;BME280;50750;51.636;4.948;2024-02-28T11:20:44;102297.98;;;11.22;64.22
59873;BME280;50750;51.636;4.948;2024-02-28T11:23:15;102294.98;;;11.22;64.30
59873;BME280;50750;51.636;4.948;2024-02-28T11:25:44;102292.70;;;11.22;64.37
59873;BME280;50750;51.636;4.948;2024-02-28T11:28:12;102295.16;;;11.22;64.57
59873;BME280;50750;51.636;4.948;2024-02-28T11:30:40;102298.48;;;11.23;64.49
59873;BME280;50750;51.636;4.948;2024-02-28T11:33:09;102299.90;;;11.23;64.59
59873;BME280;50750;51.636;4.948;2024-02-28T11:35:36;102296.02;;;11.24;64.67
59873;BME280;50750;51.636;4.948;2024-02-28T11:38:06;102290.94;;;11.24;64.58
59873;BME280;50750;51.636;4.948;2024-02-28T11:40:34;102292.50;;;11.26;64.70
59873;BME280;50750;51.636;4.948;2024-02-28T11:43:02;102290.40;;;11.26;64.52
59873;BME280;50750;51.636;4.948;2024-02-28T11:45:30;102288.63;;;11.27;64.67
59873;BME280;50750;51.636;4.948;2024-02-28T11:47:58;102284.41;;;11.27;64.73
59873;BME280;50750;51.636;4.948;2024-02-28T11:50:26;102286.88;;;11.28;64.60
59873;BME280;50750;51.636;4.948;2024-02-28T11:52:57;102290.55;;;11.29;64.66
59873;BME280;50750;51.636;4.948;2024-02-28T11:55:26;102292.65;;;11.29;64.53
59873;BME280;50750;51.636;4.948;2024-02-28T11:57:53;102288.98;;;11.28;64.82
59873;BME280;50750;51.636;4.948;2024-02-28T12:00:21;102288.45;;;11.28;64.76
59873;BME280;50750;51.636;4.948;2024-02-28T12:02:49;102285.29;;;11.28;64.93
59873;BME280;50750;51.636;4.948;2024-02-28T12:05:18;102285.29;;;11.27;65.04
59873;BME280;50750;51.636;4.948;2024-02-28T12:07:47;102279.15;;;11.27;65.07
59873;BME280;50750;51.636;4.948;2024-02-28T12:10:15;102276.17;;;11.27;65.02
59873;BME280;50750;51.636;4.948;2024-02-28T12:12:43;102271.60;;;11.28;65.15
59873;BME280;50750;51.636;4.948;2024-02-28T12:15:11;102269.86;;;11.29;65.08
59873;BME280;50750;51.636;4.948;2024-02-28T12:17:40;102268.63;;;11.30;65.18
59873;BME280;50750;51.636;4.948;2024-02-28T12:20:10;102263.52;;;11.30;65.14
59873;BME280;50750;51.636;4.948;2024-02-28T12:22:37;102267.20;;;11.30;65.39
59873;BME280;50750;51.636;4.948;2024-02-28T12:25:07;102268.42;;;11.31;65.37
59873;BME280;50750;51.636;4.948;2024-02-28T12:27:35;102271.59;;;11.31;65.53
59873;BME280;50750;51.636;4.948;2024-02-28T12:30:05;102270.70;;;11.31;65.51
59873;BME280;50750;51.636;4.948;2024-02-28T12:32:32;102267.55;;;11.30;65.68
59873;BME280;50750;51.636;4.948;2024-02-28T12:35:00;102267.74;;;11.30;65.66
59873;BME280;50750;51.636;4.948;2024-02-28T12:37:28;102272.84;;;11.28;65.56
59873;BME280;50750;51.636;4.948;2024-02-28T12:39:56;102271.61;;;11.27;65.69
59873;BME280;50750;51.636;4.948;2024-02-28T12:42:23;102273.72;;;11.27;65.87
59873;BME280;50750;51.636;4.948;2024-02-28T12:44:51;102269.52;;;11.27;65.66
59873;BME280;50750;51.636;4.948;2024-02-28T12:47:19;102267.92;;;11.28;65.80
59873;BME280;50750;51.636;4.948;2024-02-28T12:49:46;102267.39;;;11.29;65.80
59873;BME280;50750;51.636;4.948;2024-02-28T12:52:14;102262.14;;;11.29;65.75
59873;BME280;50750;51.636;4.948;2024-02-28T12:54:42;102258.63;;;11.29;65.86